Time;durP1;ratioP1;P1;durP2;ratioP2;P2;SDS_P1;SDS_P2;PMS_P1;PMS_P2;Temp;Humidity;BMP_temperature;BMP_pressure;BME280_temperature;BME280_humidity;BME280_pressure;Samples;Min_cycle;Max_cycle;Signal;HPM_P1;HPM_P2
2023/03/08 00:02:22;;;;;;;1.27;0.80;;;13.00;89.20;;;;;;5105344;28;20042;-61
2023/03/08 00:04:48;;;;;;;2.45;1.00;;;13.00;89.00;;;;;;5111649;28;20039;-61
2023/03/08 00:07:14;;;;;;;1.75;0.93;;;;;;;;;;5109224;28;20039;-60
2023/03/08 00:09:40;;;;;;;2.22;0.90;;;;;;;;;;5112843;28;20044;-59
2023/03/08 00:12:07;;;;;;;3.33;1.00;;;13.30;87.90;;;;;;5112228;28;20044;-60
2023/03/08 00:14:33;;;;;;;1.35;0.68;;;;;;;;;;5114470;28;20051;-66
2023/03/08 00:16:59;;;;;;;2.92;0.95;;;13.00;88.70;;;;;;5107755;28;20035;-65
2023/03/08 00:19:24;;;;;;;3.10;0.80;;;12.80;88.70;;;;;;5116725;28;20119;-66
2023/03/08 00:21:50;;;;;;;1.70;0.80;;;13.00;88.70;;;;;;5114512;28;20040;-66
2023/03/08 00:24:18;;;;;;;1.35;0.73;;;;;;;;;;5115757;28;20487;-63
2023/03/08 00:26:44;;;;;;;1.65;0.60;;;13.00;88.60;;;;;;5112136;28;20055;-66
2023/03/08 00:29:10;;;;;;;0.93;0.70;;;13.00;87.80;;;;;;5116373;28;20104;-66
2023/03/08 00:31:36;;;;;;;2.55;0.80;;;;;;;;;;5112708;28;20031;-59
2023/03/08 00:34:02;;;;;;;1.95;0.80;;;13.00;88.40;;;;;;5108062;28;20404;-61
2023/03/08 00:36:28;;;;;;;2.78;0.80;;;12.90;88.40;;;;;;5115906;28;20039;-61
2023/03/08 00:38:55;;;;;;;1.65;0.70;;;12.80;88.40;;;;;;5115503;28;20047;-60
2023/03/08 00:41:20;;;;;;;2.03;0.85;;;12.90;88.30;;;;;;5116280;28;20039;-60
2023/03/08 00:43:47;;;;;;;2.70;0.98;;;;;;;;;;5113847;28;20094;-61
2023/03/08 00:46:12;;;;;;;3.00;1.00;;;13.20;88.40;;;;;;5113906;28;20122;-60
2023/03/08 00:48:38;;;;;;;0.93;0.65;;;12.80;88.10;;;;;;5115042;28;20150;-59
2023/03/08 00:51:04;;;;;;;1.63;0.63;;;12.60;88.10;;;;;;5104127;28;20040;-60
2023/03/08 00:53:30;;;;;;;3.78;1.00;;;13.00;88.20;;;;;;5102932;28;20115;-60
2023/03/08 00:55:57;;;;;;;2.22;0.80;;;12.80;88.10;;;;;;5114590;28;20396;-60
2023/03/08 00:58:23;;;;;;;3.35;1.20;;;13.10;85.20;;;;;;5113456;28;20052;-61
2023/03/08 01:00:49;;;;;;;1.50;0.57;;;12.80;88.10;;;;;;5114667;28;20046;-60
2023/03/08 01:03:16;;;;;;;1.88;0.60;;;;;;;;;;5094091;28;20440;-60
2023/03/08 01:05:42;;;;;;;1.55;0.70;;;;;;;;;;5114036;28;20040;-60
2023/03/08 01:08:08;;;;;;;2.03;0.73;;;;;;;;;;5102816;28;20048;-61
2023/03/08 01:10:34;;;;;;;1.88;0.75;;;12.80;88.00;;;;;;5115441;28;20039;-60
2023/03/08 01:13:00;;;;;;;2.50;0.73;;;12.80;87.90;;;;;;5114430;28;20040;-59
2023/03/08 01:15:26;;;;;;;1.90;0.80;;;12.80;87.90;;;;;;5109718;28;20032;-59
2023/03/08 01:17:52;;;;;;;3.03;0.85;;;13.00;88.00;;;;;;5115536;28;20118;-59
2023/03/08 01:20:18;;;;;;;2.55;1.00;;;;;;;;;;5114321;28;20096;-69
2023/03/08 01:22:43;;;;;;;1.77;0.80;;;12.90;87.90;;;;;;5114005;27;20127;-60
2023/03/08 01:25:10;;;;;;;2.40;1.00;;;;;;;;;;5110466;28;20867;-63
2023/03/08 01:27:54;;;;;;;1.77;0.70;;;12.90;83.80;;;;;;5112412;28;20393;-60
2023/03/08 01:31:04;;;;;;;1.02;0.55;;;;;;;;;;5114066;28;20389;-60
2023/03/08 01:33:45;;;;;;;2.00;0.90;;;12.80;87.70;;;;;;5041601;28;20132;-60
2023/03/08 01:36:15;;;;;;;2.45;1.10;;;12.70;84.60;;;;;;5049158;28;20120;-66
2023/03/08 01:38:41;;;;;;;1.90;0.73;;;;;;;;;;5041872;28;20091;-66
2023/03/08 01:41:29;;;;;;;2.08;0.80;;;12.80;84.00;;;;;;5051880;28;20052;-66
2023/03/08 01:43:55;;;;;;;2.22;0.80;;;12.70;87.60;;;;;;5050958;28;20380;-66
2023/03/08 01:46:28;;;;;;;3.05;0.90;;;12.90;83.40;;;;;;5049369;28;20036;-66
2023/03/08 01:48:55;;;;;;;3.13;0.90;;;12.80;87.60;;;;;;5051563;28;20049;-65
2023/03/08 01:52:08;;;;;;;2.08;0.80;;;12.70;84.90;;;;;;5051129;28;20091;-66
2023/03/08 01:54:35;;;;;;;3.05;0.93;;;12.70;86.50;;;;;;5036769;28;20061;-66
2023/03/08 01:57:02;;;;;;;2.78;0.95;;;;;;;;;;5033063;28;20049;-66
2023/03/08 01:59:28;;;;;;;3.97;0.90;;;12.70;87.50;;;;;;5051551;28;20045;-65
2023/03/08 02:01:54;;;;;;;2.38;0.90;;;;;;;;;;5034122;28;20037;-65
2023/03/08 02:04:20;;;;;;;1.65;0.75;;;12.70;84.40;;;;;;5050737;28;20139;-60
2023/03/08 02:06:45;;;;;;;1.67;0.90;;;12.50;87.30;;;;;;5049597;28;20175;-60
2023/03/08 02:09:11;;;;;;;3.45;0.90;;;12.90;87.60;;;;;;5057760;28;20098;-60
2023/03/08 02:11:37;;;;;;;1.00;0.63;;;13.00;87.50;;;;;;5088981;28;20482;-60
2023/03/08 02:14:03;;;;;;;2.20;0.90;;;;;;;;;;5094070;28;20036;-60
2023/03/08 02:16:29;;;;;;;2.60;0.90;;;;;;;;;;5106871;28;20035;-66
2023/03/08 02:19:00;;;;;;;1.80;0.73;;;;;;;;;;5109498;28;20548;-66
2023/03/08 02:21:26;;;;;;;3.08;0.95;;;12.50;87.20;;;;;;5113131;28;20046;-66
2023/03/08 02:23:53;;;;;;;3.42;1.15;;;12.60;87.20;;;;;;5112700;28;20050;-60
2023/03/08 02:26:18;;;;;;;1.98;0.80;;;12.70;87.30;;;;;;5113891;28;20122;-60
2023/03/08 02:28:44;;;;;;;2.05;0.82;;;;;;;;;;5112083;28;20138;-60
2023/03/08 02:31:11;;;;;;;1.75;0.80;;;12.70;87.20;;;;;;5093537;28;20047;-60
2023/03/08 02:33:36;;;;;;;1.95;0.80;;;12.60;87.20;;;;;;5079726;28;20575;-60
2023/03/08 02:36:03;;;;;;;1.45;0.60;;;12.40;87.00;;;;;;5094515;28;20151;-60
2023/03/08 02:38:29;;;;;;;2.90;0.90;;;12.70;87.20;;;;;;5111333;28;20050;-61
2023/03/08 02:40:55;;;;;;;2.25;1.00;;;;;;;;;;5112769;28;20035;-66
2023/03/08 02:43:21;;;;;;;1.88;0.80;;;;;;;;;;5113917;28;20446;-61
2023/03/08 02:45:47;;;;;;;2.15;0.60;;;12.70;87.10;;;;;;5109346;28;20036;-60
2023/03/08 02:48:13;;;;;;;1.65;0.80;;;12.30;87.00;;;;;;5112637;28;20556;-60
2023/03/08 02:50:38;;;;;;;2.35;0.75;;;12.70;87.20;;;;;;5093278;28;20101;-60
2023/03/08 02:53:04;;;;;;;1.50;0.63;;;;;;;;;;5112756;28;20051;-59
2023/03/08 02:55:33;;;;;;;2.63;0.90;;;;;;;;;;5113800;28;20059;-62
2023/03/08 02:57:59;;;;;;;1.45;0.80;;;12.50;87.10;;;;;;5111168;28;20408;-60
2023/03/08 03:00:25;;;;;;;3.90;0.82;;;;;;;;;;5111451;28;20134;-61
2023/03/08 03:02:51;;;;;;;2.60;1.10;;;12.50;87.10;;;;;;5113212;28;20061;-63
2023/03/08 03:05:17;;;;;;;2.40;0.65;;;;;;;;;;5112142;28;20047;-61
2023/03/08 03:07:43;;;;;;;2.13;0.77;;;12.20;86.90;;;;;;5096313;28;20044;-60
2023/03/08 03:10:10;;;;;;;2.42;0.95;;;;;;;;;;5107580;28;20382;-60
2023/03/08 03:12:36;;;;;;;2.13;0.90;;;;;;;;;;5113114;28;20043;-60
2023/03/08 03:15:03;;;;;;;1.65;0.70;;;12.50;83.70;;;;;;5112446;28;20134;-60
2023/03/08 03:17:29;;;;;;;1.92;0.60;;;12.60;85.90;;;;;;5111029;28;20046;-65
2023/03/08 03:19:54;;;;;;;3.08;0.68;;;12.60;86.70;;;;;;5092516;28;20043;-66
2023/03/08 03:22:20;;;;;;;2.63;0.90;;;12.60;87.10;;;;;;5111059;28;20247;-65
2023/03/08 03:24:46;;;;;;;3.80;1.00;;;;;;;;;;5095826;28;20498;-61
2023/03/08 03:27:12;;;;;;;3.42;0.95;;;;;;;;;;5108752;28;20393;-60
2023/03/08 03:29:38;;;;;;;1.02;0.82;;;;;;;;;;5111123;28;20126;-60
2023/03/08 03:32:04;;;;;;;2.47;0.85;;;12.40;86.90;;;;;;5110295;28;20031;-60
2023/03/08 03:34:30;;;;;;;2.90;0.75;;;12.40;87.00;;;;;;5112183;28;20043;-59
2023/03/08 03:36:56;;;;;;;1.95;0.80;;;;;;;;;;5112169;28;20050;-59
2023/03/08 03:39:22;;;;;;;3.17;0.80;;;;;;;;;;5112334;28;20116;-59
2023/03/08 03:41:48;;;;;;;2.63;0.90;;;12.50;87.00;;;;;;5110768;28;20145;-59
2023/03/08 03:44:14;;;;;;;1.92;0.60;;;12.50;87.00;;;;;;5112539;28;20114;-60
2023/03/08 03:46:39;;;;;;;1.70;0.70;;;12.50;87.00;;;;;;5113626;28;20059;-60
2023/03/08 03:49:05;;;;;;;3.45;1.13;;;12.00;86.70;;;;;;5115739;28;20039;-60
2023/03/08 03:51:31;;;;;;;1.63;0.60;;;;;;;;;;5112385;28;20055;-59
2023/03/08 03:53:57;;;;;;;1.45;0.50;;;12.50;84.90;;;;;;5116236;27;20046;-60
2023/03/08 03:56:24;;;;;;;1.20;0.60;;;12.30;86.90;;;;;;5116769;28;20068;-60
2023/03/08 03:58:51;;;;;;;2.40;0.70;;;;;;;;;;5101069;28;20051;-61
2023/03/08 04:01:24;;;;;;;3.08;0.90;;;12.50;84.10;;;;;;5114605;28;20434;-61
2023/03/08 04:03:50;;;;;;;0.85;0.43;;;;;;;;;;5112709;28;20054;-63
2023/03/08 04:06:24;;;;;;;2.05;0.80;;;12.40;82.50;;;;;;5112540;28;20814;-61
2023/03/08 04:08:53;;;;;;;2.17;0.80;;;;;;;;;;5114716;28;20427;-60
2023/03/08 04:11:21;;;;;;;2.88;0.80;;;12.20;85.00;;;;;;5113841;28;20075;-61
2023/03/08 04:13:47;;;;;;;2.58;0.93;;;;;;;;;;5114918;28;20047;-61
2023/03/08 04:16:24;;;;;;;2.00;0.80;;;12.50;84.20;;;;;;5109269;28;20952;-66
2023/03/08 04:18:56;;;;;;;2.72;0.82;;;12.40;83.40;;;;;;5115216;28;20147;-66
2023/03/08 04:21:22;;;;;;;1.17;0.50;;;;;;;;;;5114200;28;20580;-67
2023/03/08 04:23:48;;;;;;;2.53;0.70;;;12.10;86.70;;;;;;5116427;28;20486;-66
2023/03/08 04:26:14;;;;;;;1.63;0.68;;;12.60;86.80;;;;;;5095835;28;20167;-66
2023/03/08 04:28:40;;;;;;;1.98;0.80;;;;;;;;;;5116493;28;20090;-66
2023/03/08 04:31:22;;;;;;;2.50;0.80;;;;;;;;;;5110709;28;20044;-65
2023/03/08 04:33:48;;;;;;;1.50;0.70;;;12.10;86.10;;;;;;5108349;28;20462;-66
2023/03/08 04:36:15;;;;;;;1.75;0.82;;;12.40;86.80;;;;;;5113908;28;20366;-66
2023/03/08 04:38:41;;;;;;;2.78;0.70;;;12.30;86.70;;;;;;5115311;28;20109;-66
2023/03/08 04:41:13;;;;;;;2.60;0.82;;;12.30;84.50;;;;;;5115251;28;20431;-66
2023/03/08 04:43:40;;;;;;;2.55;0.68;;;;;;;;;;5114275;28;20048;-60
2023/03/08 04:46:06;;;;;;;1.73;0.80;;;12.30;86.70;;;;;;5114788;28;20047;-60
2023/03/08 04:48:32;;;;;;;1.67;0.70;;;12.20;86.60;;;;;;5107529;28;20109;-60
2023/03/08 04:50:59;;;;;;;2.97;0.80;;;;;;;;;;5096224;28;20047;-60
2023/03/08 04:53:24;;;;;;;3.30;1.10;;;12.50;86.70;;;;;;5114598;28;20548;-60
2023/03/08 04:55:51;;;;;;;1.45;0.77;;;;;;;;;;5114873;28;20142;-60
2023/03/08 04:58:17;;;;;;;2.08;0.90;;;12.30;86.60;;;;;;5103016;28;20047;-60
2023/03/08 05:00:43;;;;;;;1.65;0.88;;;12.30;86.60;;;;;;5115605;28;20055;-59
2023/03/08 05:03:09;;;;;;;1.92;0.90;;;12.20;86.50;;;;;;5113828;28;20035;-59
2023/03/08 05:05:35;;;;;;;1.42;0.80;;;;;;;;;;5089961;28;20052;-62
2023/03/08 05:08:04;;;;;;;1.88;0.82;;;;;;;;;;5097832;28;20035;-67
2023/03/08 05:10:33;;;;;;;1.58;0.80;;;12.20;82.20;;;;;;5096545;28;20051;-59
2023/03/08 05:12:59;;;;;;;1.25;0.80;;;12.10;86.50;;;;;;5114763;28;20040;-60
2023/03/08 05:15:25;;;;;;;2.50;0.80;;;12.50;83.80;;;;;;5108975;28;20397;-61
2023/03/08 05:17:51;;;;;;;2.10;0.80;;;12.30;86.60;;;;;;5114631;28;20032;-60
2023/03/08 05:20:17;;;;;;;1.17;0.60;;;12.20;86.50;;;;;;5113403;28;20128;-60
2023/03/08 05:22:43;;;;;;;3.35;0.90;;;12.00;86.40;;;;;;5111099;28;20036;-60
2023/03/08 05:25:11;;;;;;;1.08;0.60;;;12.50;86.20;;;;;;5115210;28;20058;-60
2023/03/08 05:27:38;;;;;;;2.05;0.80;;;;;;;;;;5080372;28;20042;-60
2023/03/08 05:30:04;;;;;;;1.05;0.55;;;12.20;86.60;;;;;;5114109;28;20384;-60
2023/03/08 05:32:30;;;;;;;3.40;1.27;;;;;;;;;;5113886;28;20040;-60
2023/03/08 05:34:56;;;;;;;2.55;1.20;;;12.20;85.50;;;;;;5095716;28;20187;-61
2023/03/08 05:37:24;;;;;;;3.33;1.20;;;;;;;;;;5114202;28;20074;-60
2023/03/08 05:39:51;;;;;;;1.98;1.00;;;;;;;;;;5105254;28;20052;-59
2023/03/08 05:42:18;;;;;;;2.22;1.02;;;;;;;;;;5111408;28;20450;-66
2023/03/08 05:44:43;;;;;;;3.20;1.08;;;12.10;86.40;;;;;;5096114;27;20055;-60
2023/03/08 05:47:09;;;;;;;3.90;1.35;;;12.00;86.40;;;;;;5112778;28;20043;-60
2023/03/08 05:49:35;;;;;;;2.33;1.00;;;12.30;86.50;;;;;;5114920;28;20047;-59
2023/03/08 05:52:01;;;;;;;2.45;1.10;;;12.10;86.40;;;;;;5111145;28;20043;-60
2023/03/08 05:54:27;;;;;;;2.85;1.30;;;;;;;;;;5113275;28;20043;-61
2023/03/08 05:56:53;;;;;;;2.65;1.10;;;12.20;86.50;;;;;;5107188;28;20051;-60
2023/03/08 05:59:19;;;;;;;3.25;1.20;;;;;;;;;;5113823;28;20112;-60
2023/03/08 06:01:45;;;;;;;3.00;1.27;;;12.20;86.50;;;;;;5111219;28;20047;-60
2023/03/08 06:04:11;;;;;;;2.05;1.00;;;;;;;;;;5112809;28;20461;-61
2023/03/08 06:06:37;;;;;;;2.10;1.25;;;;;;;;;;5112734;28;20095;-60
2023/03/08 06:09:03;;;;;;;3.03;1.30;;;12.50;86.40;;;;;;5094961;28;20050;-60
2023/03/08 06:11:28;;;;;;;3.90;1.30;;;12.10;86.40;;;;;;5112603;28;20389;-60
2023/03/08 06:13:54;;;;;;;2.63;1.30;;;12.30;86.50;;;;;;5106829;28;20396;-60
2023/03/08 06:16:20;;;;;;;3.83;1.50;;;12.10;86.40;;;;;;5107457;28;20051;-65
2023/03/08 06:18:46;;;;;;;4.70;1.90;;;;;;;;;;5111794;28;20043;-66
2023/03/08 06:21:13;;;;;;;3.45;1.75;;;;;;;;;;5090567;28;20469;-64
2023/03/08 06:23:39;;;;;;;4.07;1.77;;;;;;;;;;5111103;28;20044;-60
2023/03/08 06:26:05;;;;;;;5.10;1.73;;;11.70;82.10;;;;;;5110235;28;20045;-63
2023/03/08 06:28:31;;;;;;;3.92;1.85;;;12.10;86.40;;;;;;5110833;28;20108;-60
2023/03/08 06:30:57;;;;;;;3.90;1.95;;;12.20;86.30;;;;;;5100485;28;20088;-60
2023/03/08 06:33:28;;;;;;;3.38;1.75;;;12.10;83.20;;;;;;5108897;28;20045;-59
2023/03/08 06:36:04;;;;;;;5.03;1.90;;;;;;;;;;5111298;28;20078;-61
2023/03/08 06:38:30;;;;;;;4.18;2.00;;;12.30;86.40;;;;;;5112762;28;20035;-60
2023/03/08 06:40:57;;;;;;;5.85;2.10;;;;;;;;;;5112022;28;20055;-59
2023/03/08 06:43:23;;;;;;;4.30;1.90;;;12.20;86.30;;;;;;5112068;28;20051;-60
2023/03/08 06:45:49;;;;;;;3.55;1.92;;;;;;;;;;5107841;28;20043;-60
2023/03/08 06:48:15;;;;;;;4.40;2.00;;;12.20;86.20;;;;;;5106893;28;20043;-60
2023/03/08 06:50:40;;;;;;;4.22;2.15;;;12.40;86.40;;;;;;5111853;28;20095;-60
2023/03/08 06:53:07;;;;;;;4.47;2.10;;;12.60;86.50;;;;;;5111892;28;20040;-60
2023/03/08 06:55:36;;;;;;;3.22;1.85;;;12.20;81.80;;;;;;5109348;28;20055;-65
2023/03/08 06:58:02;;;;;;;4.68;2.10;;;12.20;86.10;;;;;;5062377;28;1294320;-65
2023/03/08 07:00:28;;;;;;;3.75;2.05;;;12.10;86.10;;;;;;5110010;28;20043;-66
2023/03/08 07:02:54;;;;;;;5.05;2.28;;;12.30;86.10;;;;;;5107839;28;20043;-66
2023/03/08 07:05:21;;;;;;;4.22;2.13;;;;;;;;;;5098691;28;20047;-61
2023/03/08 07:07:47;;;;;;;5.13;2.20;;;;;;;;;;5113201;28;20039;-60
2023/03/08 07:10:16;;;;;;;3.95;1.90;;;12.50;86.20;;;;;;5112218;28;20469;-60
2023/03/08 07:12:45;;;;;;;6.22;2.42;;;12.40;86.00;;;;;;5112473;28;20047;-61
2023/03/08 07:15:15;;;;;;;6.28;2.28;;;;;;;;;;5110275;28;20043;-65
2023/03/08 07:17:41;;;;;;;4.97;2.08;;;12.50;84.30;;;;;;5110533;27;20039;-61
2023/03/08 07:20:11;;;;;;;4.38;2.13;;;;;;;;;;5113153;28;20047;-60
2023/03/08 07:22:37;;;;;;;4.57;2.17;;;12.50;86.00;;;;;;5107317;28;20048;-59
2023/03/08 07:25:03;;;;;;;4.05;1.92;;;12.60;86.00;;;;;;5109738;28;20385;-60
2023/03/08 07:27:30;;;;;;;4.28;2.13;;;;;;;;;;5110403;28;20069;-58
2023/03/08 07:29:56;;;;;;;4.85;2.47;;;;;;;;;;5112000;28;20078;-59
2023/03/08 07:32:22;;;;;;;4.03;2.08;;;12.60;85.80;;;;;;5112059;28;20140;-60
2023/03/08 07:34:48;;;;;;;3.92;2.10;;;12.70;85.80;;;;;;5106530;28;20052;-65
2023/03/08 07:37:14;;;;;;;4.25;2.22;;;12.70;85.80;;;;;;5110300;28;20116;-65
2023/03/08 07:39:40;;;;;;;4.90;2.20;;;12.80;85.70;;;;;;5107528;28;20097;-63
2023/03/08 07:42:07;;;;;;;4.40;2.30;;;12.70;82.70;;;;;;5113161;28;20118;-63
2023/03/08 07:44:33;;;;;;;5.28;2.10;;;12.70;85.70;;;;;;5111928;28;20442;-64
2023/03/08 07:46:59;;;;;;;4.38;2.28;;;12.70;85.70;;;;;;5111404;28;20047;-64
2023/03/08 07:49:24;;;;;;;4.32;2.15;;;12.90;85.80;;;;;;5111640;28;20046;-64
2023/03/08 07:51:52;;;;;;;4.88;2.20;;;13.00;85.70;;;;;;5105964;28;20477;-59
2023/03/08 07:54:18;;;;;;;5.15;2.22;;;12.90;84.40;;;;;;5110409;28;20047;-64
2023/03/08 07:56:43;;;;;;;5.40;2.60;;;12.90;85.80;;;;;;5095481;28;20048;-64
2023/03/08 07:59:09;;;;;;;5.40;2.42;;;12.40;85.50;;;;;;5112365;28;20043;-63
2023/03/08 08:01:35;;;;;;;4.93;2.58;;;13.00;85.60;;;;;;5108678;28;20078;-61
2023/03/08 08:04:01;;;;;;;5.13;2.28;;;13.00;85.50;;;;;;5112067;28;20086;-60
2023/03/08 08:06:27;;;;;;;5.05;2.30;;;;;;;;;;5113067;28;20119;-60
2023/03/08 08:08:56;;;;;;;7.72;2.60;;;13.00;81.30;;;;;;5112583;28;20508;-60
2023/03/08 08:11:22;;;;;;;5.68;2.47;;;13.30;85.50;;;;;;5107781;28;20036;-61
2023/03/08 08:13:48;;;;;;;5.00;2.65;;;;;;;;;;5097782;28;20047;-61
2023/03/08 08:16:14;;;;;;;5.97;2.35;;;13.20;85.30;;;;;;5112360;28;20134;-60
2023/03/08 08:18:40;;;;;;;5.72;2.72;;;13.10;85.20;;;;;;5111245;28;20115;-63
2023/03/08 08:21:08;;;;;;;5.78;2.80;;;13.40;85.40;;;;;;5112616;28;20532;-61
2023/03/08 08:23:34;;;;;;;4.45;2.15;;;;;;;;;;5110056;28;20166;-60
2023/03/08 08:26:03;;;;;;;5.10;2.47;;;;;;;;;;5111928;28;20047;-62
2023/03/08 08:28:29;;;;;;;5.80;2.50;;;13.10;84.50;;;;;;5112973;28;20066;-60
2023/03/08 08:30:58;;;;;;;5.18;2.25;;;;;;;;;;5096738;28;20044;-61
2023/03/08 08:33:24;;;;;;;5.15;2.53;;;;;;;;;;5102071;28;20214;-63
2023/03/08 08:35:50;;;;;;;5.63;2.80;;;13.60;86.10;;;;;;5106704;28;20044;-64
2023/03/08 08:38:15;;;;;;;5.90;2.50;;;13.60;86.00;;;;;;5110346;28;20035;-65
2023/03/08 08:40:41;;;;;;;4.60;2.20;;;;;;;;;;5110061;28;20043;-61
2023/03/08 08:43:07;;;;;;;6.50;2.78;;;13.50;86.10;;;;;;5110895;28;20112;-62
2023/03/08 08:45:33;;;;;;;6.68;2.42;;;13.70;86.30;;;;;;5113968;28;20101;-65
2023/03/08 08:47:59;;;;;;;5.13;2.42;;;;;;;;;;5109811;28;20046;-65
2023/03/08 08:50:25;;;;;;;5.78;2.70;;;;;;;;;;5114030;28;20051;-64
2023/03/08 08:52:51;;;;;;;5.15;2.65;;;13.60;85.60;;;;;;5112476;28;20035;-65
2023/03/08 08:55:17;;;;;;;5.53;2.92;;;13.60;85.50;;;;;;5113546;28;20035;-63
2023/03/08 08:57:42;;;;;;;5.38;2.67;;;13.30;85.40;;;;;;5113351;28;20389;-67
2023/03/08 09:00:11;;;;;;;5.07;3.00;;;13.50;82.50;;;;;;5114549;28;20131;-66
2023/03/08 09:02:37;;;;;;;6.00;2.88;;;;;;;;;;5113028;28;20061;-66
2023/03/08 09:05:03;;;;;;;5.78;2.83;;;13.50;85.30;;;;;;5103124;28;20043;-67
2023/03/08 09:07:29;;;;;;;5.95;3.00;;;13.20;85.10;;;;;;5114535;28;20046;-61
2023/03/08 09:09:54;;;;;;;6.97;3.00;;;13.60;85.40;;;;;;5114386;28;20039;-67
2023/03/08 09:12:21;;;;;;;6.30;2.70;;;;;;;;;;5113985;28;20127;-60
2023/03/08 09:14:46;;;;;;;8.52;3.13;;;13.70;85.40;;;;;;5113955;28;20063;-61
2023/03/08 09:17:12;;;;;;;7.60;2.88;;;13.70;85.30;;;;;;5114430;28;20070;-64
2023/03/08 09:19:38;;;;;;;5.97;3.10;;;;;;;;;;5115245;28;20043;-68
2023/03/08 09:22:04;;;;;;;7.22;2.92;;;13.50;85.20;;;;;;5095259;28;20043;-61
2023/03/08 09:24:30;;;;;;;6.80;3.33;;;;;;;;;;5101668;28;20043;-66
2023/03/08 09:26:56;;;;;;;6.68;3.10;;;;;;;;;;5113142;28;20032;-59
2023/03/08 09:29:22;;;;;;;5.35;3.00;;;13.60;85.00;;;;;;5109136;28;20083;-62
2023/03/08 09:31:48;;;;;;;6.38;2.92;;;;;;;;;;5113871;28;20493;-64
2023/03/08 09:34:14;;;;;;;7.85;3.10;;;13.70;85.00;;;;;;5114234;28;20040;-62
2023/03/08 09:36:40;;;;;;;6.25;2.90;;;;;;;;;;5113695;28;20370;-59
2023/03/08 09:39:07;;;;;;;6.35;3.33;;;;;;;;;;5092464;28;20097;-63
2023/03/08 09:42:17;;;;;;;8.50;3.30;;;13.50;80.50;;;;;;5111751;28;20050;-66
2023/03/08 09:45:06;;;;;;;9.07;3.53;;;13.60;80.80;;;;;;5024166;28;20532;-62
2023/03/08 09:47:32;;;;;;;6.20;3.55;;;;;;;;;;5014419;28;20499;-63
2023/03/08 09:50:17;;;;;;;5.75;3.20;;;13.30;84.70;;;;;;5012976;28;20430;-63
2023/03/08 09:52:57;;;;;;;8.40;3.25;;;13.60;82.10;;;;;;5028230;28;20056;-62
2023/03/08 09:55:31;;;;;;;4.60;2.67;;;13.70;82.00;;;;;;5018426;28;20191;-63
2023/03/08 09:58:18;;;;;;;6.55;3.22;;;13.60;82.20;;;;;;5003812;28;20427;-63
2023/03/08 10:00:45;;;;;;;6.30;3.03;;;13.60;84.80;;;;;;5011723;28;20092;-63
2023/03/08 10:03:11;;;;;;;5.50;2.80;;;13.60;84.50;;;;;;5012929;28;20053;-63
2023/03/08 10:05:55;;;;;;;6.38;3.10;;;13.50;84.80;;;;;;5017277;28;20048;-63
2023/03/08 10:08:23;;;;;;;5.75;3.08;;;;;;;;;;5019043;28;20053;-66
2023/03/08 10:10:59;;;;;;;5.47;2.70;;;;;;;;;;5024294;28;20053;-64
2023/03/08 10:13:35;;;;;;;7.05;2.95;;;;;;;;;;5011365;28;20053;-65
2023/03/08 10:16:06;;;;;;;5.82;2.90;;;;;;;;;;5082907;28;20062;-65
2023/03/08 10:18:49;;;;;;;6.85;3.28;;;13.50;80.50;;;;;;5092972;28;20104;-63
2023/03/08 10:21:16;;;;;;;4.63;2.90;;;;;;;;;;5094445;28;20054;-64
2023/03/08 10:23:44;;;;;;;4.63;2.33;;;13.60;84.90;;;;;;5113355;28;20126;-64
2023/03/08 10:26:11;;;;;;;4.90;2.70;;;;;;;;;;5074908;28;20497;-67
2023/03/08 10:28:37;;;;;;;4.55;2.83;;;13.60;84.70;;;;;;5111224;28;20039;-65
2023/03/08 10:31:05;;;;;;;6.85;2.88;;;;;;;;;;5112275;28;20100;-62
2023/03/08 10:33:32;;;;;;;5.50;2.55;;;13.60;84.80;;;;;;5096081;28;20470;-63
2023/03/08 10:36:03;;;;;;;5.38;2.67;;;;;;;;;;5093297;28;20115;-60
2023/03/08 10:38:31;;;;;;;5.15;2.65;;;13.70;81.90;;;;;;5109087;28;20148;-66
2023/03/08 10:41:01;;;;;;;5.18;2.30;;;;;;;;;;5111930;28;20048;-65
2023/03/08 10:43:31;;;;;;;4.28;2.38;;;13.70;81.90;;;;;;5113998;28;20051;-62
2023/03/08 10:46:02;;;;;;;6.47;2.60;;;13.80;81.30;;;;;;5093285;28;20035;-66
2023/03/08 10:48:28;;;;;;;3.67;1.95;;;;;;;;;;5111960;28;20051;-66
2023/03/08 10:50:58;;;;;;;5.32;2.20;;;;;;;;;;5113324;28;20035;-65
2023/03/08 10:53:27;;;;;;;4.13;2.38;;;13.80;82.50;;;;;;5108372;28;20104;-65
2023/03/08 10:55:53;;;;;;;5.40;2.22;;;;;;;;;;5111790;28;20082;-64
2023/03/08 10:58:36;;;;;;;4.90;1.95;;;14.00;81.00;;;;;;5111371;28;20059;-61
2023/03/08 11:01:04;;;;;;;4.88;2.13;;;13.70;81.80;;;;;;5113265;28;20054;-63
2023/03/08 11:03:30;;;;;;;5.28;2.30;;;13.90;84.90;;;;;;5098221;28;20119;-65
2023/03/08 11:05:57;;;;;;;5.68;2.15;;;13.50;82.40;;;;;;5093027;28;20048;-66
2023/03/08 11:08:27;;;;;;;3.65;2.05;;;13.90;82.30;;;;;;5108548;28;20078;-65
2023/03/08 11:11:00;;;;;;;5.20;1.90;;;13.90;80.80;;;;;;5110833;28;20078;-65
2023/03/08 11:13:30;;;;;;;4.68;2.10;;;13.80;82.70;;;;;;5111814;28;20054;-65
2023/03/08 11:15:56;;;;;;;3.95;2.00;;;;;;;;;;5112845;28;20580;-65
2023/03/08 11:18:55;;;;;;;4.63;2.17;;;13.90;82.30;;;;;;5112472;28;20040;-65
2023/03/08 11:21:24;;;;;;;3.30;1.90;;;;;;;;;;5076838;28;20489;-65
2023/03/08 11:24:31;;;;;;;4.10;1.77;;;13.80;82.00;;;;;;5105708;28;20170;-62
2023/03/08 11:27:22;;;;;;;3.92;1.90;;;14.00;82.20;;;;;;5021373;28;20049;-61
2023/03/08 11:29:57;;;;;;;4.10;1.63;;;;;;;;;;5016393;28;20136;-65
2023/03/08 11:32:42;;;;;;;4.10;1.75;;;;;;;;;;5028845;28;20041;-65
2023/03/08 11:35:12;;;;;;;4.25;1.73;;;14.00;84.60;;;;;;5018466;28;20038;-63
2023/03/08 11:37:42;;;;;;;3.60;1.52;;;14.00;80.00;;;;;;5004364;28;20056;-60
2023/03/08 11:40:24;;;;;;;3.85;2.03;;;14.00;80.30;;;;;;5018383;28;20134;-61
2023/03/08 11:42:53;;;;;;;4.82;1.75;;;;;;;;;;5013756;28;20156;-67
2023/03/08 11:45:25;;;;;;;2.72;1.45;;;14.10;84.50;;;;;;5030196;28;20388;-63
2023/03/08 11:48:18;;;;;;;3.50;1.48;;;14.00;81.80;;;;;;5030155;28;20042;-64
2023/03/08 11:50:52;;;;;;;5.13;1.58;;;13.80;81.60;;;;;;5014371;28;20103;-60
2023/03/08 11:53:29;;;;;;;3.60;1.50;;;;;;;;;;5011976;28;20057;-63
2023/03/08 11:56:07;;;;;;;3.38;1.50;;;13.70;84.30;;;;;;5033589;28;20053;-69
2023/03/08 11:59:11;;;;;;;3.05;1.55;;;;;;;;;;5049924;28;20060;-63
2023/03/08 12:01:41;;;;;;;3.53;1.60;;;;;;;;;;4970983;28;20081;-62
2023/03/08 12:04:30;;;;;;;6.60;1.90;;;14.10;81.60;;;;;;5013180;28;20046;-65
2023/03/08 12:06:56;;;;;;;5.43;1.55;;;14.30;84.20;;;;;;5017608;28;20447;-71
2023/03/08 12:09:34;;;;;;;3.90;1.40;;;;;;;;;;5026260;28;20133;-67
2023/03/08 12:12:05;;;;;;;3.22;1.40;;;14.40;84.20;;;;;;5034103;28;20041;-60
2023/03/08 12:14:56;;;;;;;3.63;1.40;;;14.40;81.50;;;;;;5051562;28;20422;-63
2023/03/08 12:17:32;;;;;;;2.80;1.52;;;;;;;;;;5049181;28;20064;-64
2023/03/08 12:19:58;;;;;;;3.47;1.55;;;14.40;84.10;;;;;;5036519;28;20114;-66
2023/03/08 12:22:45;;;;;;;2.95;1.50;;;14.20;80.00;;;;;;5051922;28;20112;-62
2023/03/08 12:25:14;;;;;;;3.08;1.23;;;14.50;80.80;;;;;;5052586;28;20052;-61
2023/03/08 12:27:53;;;;;;;4.03;1.67;;;14.30;81.20;;;;;;5035320;28;20041;-61
2023/03/08 12:30:37;;;;;;;3.63;1.40;;;14.40;84.10;;;;;;5050904;28;20089;-61
2023/03/08 12:33:04;;;;;;;3.40;1.40;;;14.10;84.00;;;;;;5101851;28;20044;-61
2023/03/08 12:35:31;;;;;;;2.80;1.40;;;;;;;;;;5115506;28;20052;-62
2023/03/08 12:38:17;;;;;;;2.67;1.40;;;14.30;80.70;;;;;;5111810;28;20445;-64
2023/03/08 12:40:45;;;;;;;3.35;1.20;;;;;;;;;;5113088;28;20047;-64
2023/03/08 12:43:12;;;;;;;2.65;1.45;;;14.50;84.00;;;;;;5099163;28;20044;-63
2023/03/08 12:45:40;;;;;;;3.08;1.20;;;13.80;83.60;;;;;;5109526;28;20039;-65
2023/03/08 12:48:06;;;;;;;2.80;1.30;;;;;;;;;;5114937;28;20469;-60
2023/03/08 12:50:45;;;;;;;5.93;1.50;;;14.40;81.10;;;;;;5116021;28;20047;-60
2023/03/08 12:53:31;;;;;;;3.60;1.40;;;;;;;;;;5115687;28;20378;-61
2023/03/08 12:56:08;;;;;;;4.85;1.30;;;14.30;79.70;;;;;;5109733;28;20043;-61
2023/03/08 12:58:35;;;;;;;4.55;1.50;;;14.20;83.90;;;;;;5115416;28;20094;-59
2023/03/08 13:01:06;;;;;;;4.57;1.80;;;;;;;;;;5112175;28;20485;-61
2023/03/08 13:03:40;;;;;;;6.20;1.88;;;;;;;;;;5111159;28;20044;-60
2023/03/08 13:06:57;;;;;;;5.05;1.67;;;14.30;81.10;;;;;;5112215;28;20397;-61
2023/03/08 13:09:26;;;;;;;4.70;1.85;;;;;;;;;;5030011;28;20522;-61
2023/03/08 13:12:10;;;;;;;6.43;1.90;;;14.10;81.10;;;;;;5030342;28;20561;-59
2023/03/08 13:14:36;;;;;;;4.75;1.63;;;;;;;;;;5029764;28;20502;-59
2023/03/08 13:17:23;;;;;;;4.63;2.15;;;;;;;;;;5030536;28;20045;-59
2023/03/08 13:19:49;;;;;;;7.43;1.77;;;13.80;83.70;;;;;;5028768;28;20380;-59
2023/03/08 13:22:43;;;;;;;4.72;1.75;;;14.10;81.10;;;;;;5012419;28;20045;-61
2023/03/08 13:25:21;;;;;;;4.85;1.73;;;14.20;81.20;;;;;;5027586;28;20061;-59
2023/03/08 13:28:09;;;;;;;4.80;2.00;;;14.00;81.00;;;;;;5020286;28;20088;-59
2023/03/08 13:31:02;;;;;;;5.32;1.85;;;14.10;81.50;;;;;;5019052;28;20056;-65
2023/03/08 13:33:30;;;;;;;5.10;1.73;;;14.00;82.20;;;;;;5016541;28;20061;-65
2023/03/08 13:36:00;;;;;;;5.03;1.90;;;13.90;83.80;;;;;;5021561;28;20088;-65
2023/03/08 13:38:33;;;;;;;3.78;1.45;;;13.80;79.50;;;;;;5012306;28;20440;-61